createdAt,value
2022-12-28T00:01:52.443Z,84.70
2022-12-28T00:04:20.503Z,84.73
2022-12-28T00:06:51.371Z,84.60
2022-12-28T00:09:19.281Z,84.56
2022-12-28T00:11:48.004Z,84.54
2022-12-28T00:14:16.012Z,84.60
2022-12-28T00:16:44.112Z,84.60
2022-12-28T00:19:13.343Z,84.32
2022-12-28T00:21:41.449Z,84.45
2022-12-28T00:24:09.791Z,84.31
2022-12-28T00:26:37.716Z,84.33
2022-12-28T00:29:05.957Z,83.94
2022-12-28T00:31:35.174Z,83.75
2022-12-28T00:34:03.874Z,83.40
2022-12-28T00:37:08.970Z,83.51
2022-12-28T00:39:21.236Z,83.74
2022-12-28T00:41:49.250Z,84.06
2022-12-28T00:44:17.172Z,83.98
2022-12-28T00:46:45.142Z,83.97
2022-12-28T00:49:13.113Z,84.08
2022-12-28T00:51:41.090Z,83.94
2022-12-28T00:54:09.063Z,84.15
2022-12-28T00:56:37.061Z,84.29
2022-12-28T00:59:04.999Z,84.03
2022-12-28T01:01:33.076Z,83.88
2022-12-28T01:04:01.139Z,83.99
2022-12-28T01:06:29.628Z,83.77
2022-12-28T01:08:57.752Z,84.18
2022-12-28T01:11:27.257Z,84.25
2022-12-28T01:13:56.508Z,84.22
2022-12-28T01:16:27.566Z,83.89
2022-12-28T01:18:56.586Z,83.77
2022-12-28T01:21:25.790Z,84.16
2022-12-28T01:23:58.668Z,84.08
2022-12-28T01:26:27.031Z,83.70
2022-12-28T01:28:55.186Z,83.99
2022-12-28T01:31:23.767Z,83.95
2022-12-28T01:33:51.857Z,83.86
2022-12-28T01:36:23.985Z,83.63
2022-12-28T01:38:59.220Z,83.75
2022-12-28T01:41:28.517Z,83.46
2022-12-28T01:43:56.428Z,83.68
2022-12-28T01:46:26.430Z,83.99
2022-12-28T01:49:12.674Z,83.98
2022-12-28T01:51:53.711Z,83.86
2022-12-28T01:54:23.336Z,83.95
2022-12-28T01:56:52.210Z,83.84
2022-12-28T01:59:21.614Z,83.73
2022-12-28T02:01:49.978Z,83.87
2022-12-28T02:04:18.833Z,83.55
2022-12-28T02:06:47.383Z,83.34
2022-12-28T02:09:20.808Z,83.24
2022-12-28T02:11:49.704Z,83.46
2022-12-28T02:14:18.918Z,82.98
2022-12-28T02:16:47.007Z,82.95
2022-12-28T02:19:17.809Z,83.15
2022-12-28T02:21:48.443Z,83.09
2022-12-28T02:24:34.576Z,82.99
2022-12-28T02:27:05.447Z,83.38
2022-12-28T02:29:51.972Z,83.26
2022-12-28T02:32:19.954Z,83.22
2022-12-28T02:34:54.214Z,83.06
2022-12-28T02:37:34.088Z,83.21
2022-12-28T02:40:08.923Z,83.01
2022-12-28T02:42:37.564Z,83.05
2022-12-28T02:45:24.475Z,82.94
2022-12-28T02:48:11.512Z,82.93
2022-12-28T02:51:02.574Z,83.23
2022-12-28T02:53:52.584Z,83.47
2022-12-28T02:56:29.613Z,82.89
2022-12-28T02:59:16.599Z,82.86
2022-12-28T03:02:01.045Z,83.24
2022-12-28T03:04:41.597Z,82.75
2022-12-28T03:07:30.899Z,83.12
2022-12-28T03:10:17.233Z,82.75
2022-12-28T03:12:57.577Z,82.95
2022-12-28T03:15:31.465Z,82.71
2022-12-28T03:18:26.587Z,82.81
2022-12-28T03:21:14.689Z,83.00
2022-12-28T03:24:02.352Z,82.83
2022-12-28T03:26:51.842Z,83.27
2022-12-28T03:29:39.839Z,83.49
2022-12-28T03:32:08.166Z,82.99
2022-12-28T03:34:36.271Z,83.22
2022-12-28T03:37:10.570Z,82.71
2022-12-28T03:39:38.573Z,82.92
2022-12-28T03:42:30.741Z,83.05
2022-12-28T03:45:02.999Z,82.92
2022-12-28T03:47:33.409Z,83.09
2022-12-28T03:50:01.442Z,83.35
2022-12-28T03:52:29.563Z,83.23
2022-12-28T03:54:57.475Z,83.41
2022-12-28T03:57:25.411Z,83.36
2022-12-28T03:59:53.299Z,83.25
2022-12-28T04:02:21.483Z,83.15
2022-12-28T04:04:49.678Z,82.86
2022-12-28T04:07:17.770Z,82.94
2022-12-28T04:09:45.775Z,83.10
2022-12-28T04:12:15.530Z,83.23
2022-12-28T04:14:43.530Z,83.14
2022-12-28T04:17:11.539Z,82.92
2022-12-28T04:19:44.369Z,82.84
2022-12-28T04:22:12.439Z,82.70
2022-12-28T04:24:40.331Z,82.69
2022-12-28T04:27:08.373Z,83.11
2022-12-28T04:29:36.396Z,82.66
2022-12-28T04:32:04.425Z,82.97
2022-12-28T04:34:32.505Z,82.78
2022-12-28T04:37:00.495Z,82.49
2022-12-28T04:39:28.649Z,82.75
2022-12-28T04:42:16.635Z,82.87
2022-12-28T04:44:44.659Z,82.62
2022-12-28T04:47:12.611Z,82.63
2022-12-28T04:49:40.612Z,83.06
2022-12-28T04:52:09.081Z,82.77
2022-12-28T04:54:37.005Z,83.13
2022-12-28T04:57:05.047Z,82.85
2022-12-28T04:59:33.062Z,83.04
2022-12-28T05:02:01.119Z,83.17
2022-12-28T05:04:29.249Z,82.65
2022-12-28T05:06:57.147Z,82.60
2022-12-28T05:09:25.321Z,82.90
2022-12-28T05:11:53.410Z,82.88
2022-12-28T05:14:21.470Z,82.95
2022-12-28T05:16:52.227Z,82.57
2022-12-28T05:19:20.170Z,82.75
2022-12-28T05:21:48.181Z,82.91
2022-12-28T05:24:16.061Z,82.36
2022-12-28T05:26:44.006Z,82.72
2022-12-28T05:29:12.006Z,82.41
2022-12-28T05:31:40.056Z,82.85
2022-12-28T05:34:08.041Z,82.32
2022-12-28T05:36:38.813Z,82.65
2022-12-28T05:39:06.967Z,82.65
2022-12-28T05:41:34.939Z,82.45
2022-12-28T05:44:03.061Z,83.08
2022-12-28T05:46:32.698Z,82.73
2022-12-28T05:49:01.285Z,82.39
2022-12-28T05:51:30.548Z,82.37
2022-12-28T05:53:59.857Z,82.80
2022-12-28T05:56:29.086Z,82.60
2022-12-28T05:59:01.886Z,82.27
2022-12-28T06:01:31.561Z,82.49
2022-12-28T06:04:01.486Z,82.30
2022-12-28T06:06:30.079Z,82.79
2022-12-28T06:08:58.803Z,82.52
2022-12-28T06:11:27.943Z,82.35
2022-12-28T06:13:56.486Z,82.42
2022-12-28T06:16:25.625Z,82.35
2022-12-28T06:18:53.616Z,82.34
2022-12-28T06:21:23.091Z,82.18
2022-12-28T06:23:51.667Z,82.26
2022-12-28T06:26:22.175Z,82.18
2022-12-28T06:28:50.963Z,82.27
2022-12-28T06:31:20.141Z,82.11
2022-12-28T06:33:48.619Z,81.99
2022-12-28T06:36:20.628Z,82.40
2022-12-28T06:38:49.639Z,82.13
2022-12-28T06:41:18.483Z,82.52
2022-12-28T06:43:46.737Z,82.18
2022-12-28T06:46:15.573Z,82.44
2022-12-28T06:48:43.665Z,82.19
2022-12-28T06:51:13.498Z,82.08
2022-12-28T06:53:41.405Z,82.14
2022-12-28T06:56:11.564Z,81.84
2022-12-28T06:58:39.858Z,82.22
2022-12-28T07:01:18.491Z,82.07
2022-12-28T07:03:47.171Z,82.09
2022-12-28T07:06:16.661Z,82.31
2022-12-28T07:08:45.046Z,82.11
2022-12-28T07:11:14.399Z,82.03
2022-12-28T07:13:42.865Z,82.34
2022-12-28T07:16:15.421Z,82.28
2022-12-28T07:18:43.554Z,82.11
2022-12-28T07:21:15.699Z,81.88
2022-12-28T07:23:44.075Z,81.91
2022-12-28T07:26:13.436Z,82.10
2022-12-28T07:28:42.869Z,82.11
2022-12-28T07:31:12.107Z,81.75
2022-12-28T07:33:40.049Z,81.80
2022-12-28T07:36:09.267Z,82.09
2022-12-28T07:38:37.282Z,81.75
2022-12-28T07:41:06.576Z,81.52
2022-12-28T07:43:35.074Z,81.26
2022-12-28T07:46:07.733Z,81.63
2022-12-28T07:48:36.377Z,81.63
2022-12-28T07:51:15.334Z,81.67
2022-12-28T07:53:44.245Z,81.73
2022-12-28T07:56:12.798Z,81.41
2022-12-28T08:01:09.288Z,81.43
2022-12-28T08:03:37.436Z,81.44
2022-12-28T08:06:06.445Z,81.22
2022-12-28T08:08:38.089Z,81.11
2022-12-28T08:11:16.544Z,81.50
2022-12-28T08:13:45.469Z,81.28
2022-12-28T08:16:14.145Z,81.02
2022-12-28T08:18:42.573Z,81.07
2022-12-28T08:21:14.867Z,81.04
2022-12-28T08:23:43.068Z,81.07
2022-12-28T08:26:12.678Z,81.44
2022-12-28T08:28:41.455Z,81.12
2022-12-28T08:31:12.642Z,81.17
2022-12-28T08:33:40.800Z,80.96
2022-12-28T08:36:10.106Z,81.04
2022-12-28T08:38:38.701Z,81.19
2022-12-28T08:41:08.169Z,81.40
2022-12-28T08:43:37.014Z,81.08
2022-12-28T08:46:05.056Z,81.03
2022-12-28T08:48:33.710Z,81.03
2022-12-28T08:51:05.606Z,81.22
2022-12-28T08:53:34.008Z,81.07
2022-12-28T08:56:21.300Z,81.14
2022-12-28T08:58:50.261Z,81.00
2022-12-28T09:01:25.855Z,81.17
2022-12-28T09:03:55.052Z,81.08
2022-12-28T09:06:27.690Z,81.05
2022-12-28T09:09:05.512Z,81.11
2022-12-28T09:11:38.404Z,80.98
2022-12-28T09:14:07.327Z,80.67
2022-12-28T09:16:35.781Z,80.63
2022-12-28T09:19:04.491Z,80.58
2022-12-28T09:21:34.370Z,80.57
2022-12-28T09:24:02.828Z,80.58
2022-12-28T09:26:32.742Z,80.75
2022-12-28T09:29:04.811Z,80.53
2022-12-28T09:31:34.072Z,80.72
2022-12-28T09:34:35.124Z,80.62
2022-12-28T09:36:52.929Z,80.47
2022-12-28T09:39:23.106Z,80.73
2022-12-28T09:41:56.791Z,80.79
2022-12-28T09:44:37.149Z,80.57
2022-12-28T09:47:18.824Z,80.51
2022-12-28T09:50:02.266Z,80.70
2022-12-28T09:52:35.383Z,80.74
2022-12-28T09:55:14.093Z,80.69
2022-12-28T09:57:46.091Z,80.83
2022-12-28T10:00:21.161Z,80.70
2022-12-28T10:03:18.134Z,80.89
2022-12-28T10:05:46.564Z,80.73
2022-12-28T10:08:16.807Z,80.75
2022-12-28T10:10:48.677Z,80.67
2022-12-28T10:13:52.918Z,80.56
2022-12-28T10:16:17.086Z,80.47
2022-12-28T10:18:45.099Z,80.55
2022-12-28T10:21:13.319Z,80.68
2022-12-28T10:24:12.113Z,80.73
2022-12-28T10:26:30.096Z,80.91
2022-12-28T10:29:02.202Z,80.53
2022-12-28T10:31:34.315Z,80.42
2022-12-28T10:34:02.759Z,80.44
2022-12-28T10:36:37.449Z,80.39
2022-12-28T10:39:05.785Z,80.55
2022-12-28T10:41:41.769Z,80.57
2022-12-28T10:44:45.720Z,80.66
2022-12-28T10:47:06.491Z,80.42
2022-12-28T10:49:38.979Z,80.52
2022-12-28T10:52:15.849Z,80.64
2022-12-28T10:54:44.758Z,80.62
2022-12-28T10:57:21.611Z,80.45
2022-12-28T10:59:50.740Z,80.62
2022-12-28T11:02:23.918Z,80.79
2022-12-28T11:04:56.289Z,80.78
2022-12-28T11:07:32.333Z,80.38
2022-12-28T11:10:18.568Z,80.57
2022-12-28T11:12:46.893Z,80.38
2022-12-28T11:15:16.207Z,79.90
2022-12-28T11:17:44.653Z,80.19
2022-12-28T11:20:12.491Z,80.37
2022-12-28T11:22:40.495Z,80.19
2022-12-28T11:25:09.072Z,80.32
2022-12-28T11:27:37.444Z,80.65
2022-12-28T11:30:05.923Z,80.38
2022-12-28T11:32:39.351Z,80.27
2022-12-28T11:35:07.970Z,80.43
2022-12-28T11:37:35.848Z,80.23
2022-12-28T11:40:03.828Z,80.11
2022-12-28T11:42:39.610Z,80.23
2022-12-28T11:45:18.251Z,80.43
2022-12-28T11:47:46.751Z,80.35
2022-12-28T11:50:33.610Z,79.99
2022-12-28T11:53:02.447Z,80.15
2022-12-28T11:55:42.349Z,80.42
2022-12-28T11:58:28.323Z,80.72
2022-12-28T12:00:57.545Z,80.35
2022-12-28T12:03:44.362Z,80.29
2022-12-28T12:06:12.329Z,79.85
2022-12-28T12:08:41.290Z,80.41
2022-12-28T12:11:27.687Z,80.16
2022-12-28T12:13:56.439Z,80.32
2022-12-28T12:16:28.987Z,80.23
2022-12-28T12:18:58.570Z,80.45
2022-12-28T12:21:26.549Z,80.39
2022-12-28T12:23:59.011Z,80.30
2022-12-28T12:26:39.053Z,80.01
2022-12-28T12:29:18.845Z,80.02
2022-12-28T12:32:15.798Z,80.08
2022-12-28T12:34:49.296Z,79.78
2022-12-28T12:37:35.701Z,79.68
2022-12-28T12:40:17.926Z,80.25
2022-12-28T12:42:45.916Z,80.04
2022-12-28T12:45:36.369Z,79.61
2022-12-28T12:48:22.826Z,79.80
2022-12-28T12:50:59.887Z,79.59
2022-12-28T12:53:51.861Z,79.95
2022-12-28T12:56:19.824Z,79.69
2022-12-28T12:59:10.569Z,80.21
2022-12-28T13:01:45.401Z,80.00
2022-12-28T13:04:19.529Z,80.07
2022-12-28T13:06:47.949Z,79.53
2022-12-28T13:09:18.209Z,79.83
2022-12-28T13:11:46.443Z,79.63
2022-12-28T13:14:21.795Z,80.05
2022-12-28T13:16:54.041Z,80.18
2022-12-28T13:19:24.175Z,80.06
2022-12-28T13:21:53.081Z,80.00
2022-12-28T13:24:28.445Z,79.82
2022-12-28T13:26:57.135Z,79.17
2022-12-28T13:29:51.221Z,79.64
2022-12-28T13:32:36.047Z,80.27
2022-12-28T13:35:17.743Z,80.10
2022-12-28T13:37:59.194Z,80.14
2022-12-28T13:40:27.208Z,79.63
2022-12-28T13:43:18.095Z,79.52
2022-12-28T13:45:50.885Z,79.53
2022-12-28T13:48:19.209Z,80.02
2022-12-28T13:50:47.217Z,79.73
2022-12-28T13:53:21.772Z,79.65
2022-12-28T13:55:51.359Z,80.27
2022-12-28T13:58:39.370Z,79.84
2022-12-28T14:01:10.192Z,79.94
2022-12-28T14:03:43.372Z,80.24
2022-12-28T14:06:18.119Z,79.61
2022-12-28T14:08:46.903Z,79.69
2022-12-28T14:11:15.044Z,79.67
2022-12-28T14:13:43.219Z,79.78
2022-12-28T14:16:11.617Z,80.04
2022-12-28T14:18:40.015Z,79.92
2022-12-28T14:21:08.174Z,79.47
2022-12-28T14:23:37.458Z,80.18
2022-12-28T14:26:06.891Z,80.13
2022-12-28T14:28:37.940Z,79.54
2022-12-28T14:31:06.935Z,80.11
2022-12-28T14:33:39.687Z,80.15
2022-12-28T14:36:09.270Z,80.06
2022-12-28T14:38:41.118Z,80.57
2022-12-28T14:41:18.029Z,80.58
2022-12-28T14:43:52.027Z,80.08
2022-12-28T14:46:30.258Z,80.50
2022-12-28T14:48:58.557Z,79.95
2022-12-28T14:51:31.512Z,80.35
2022-12-28T14:54:25.460Z,79.79
2022-12-28T14:56:55.809Z,80.47
2022-12-28T14:59:35.833Z,80.22
2022-12-28T15:02:04.616Z,80.51
2022-12-28T15:04:40.012Z,80.09
2022-12-28T15:07:09.567Z,79.70
2022-12-28T15:09:37.569Z,79.98
2022-12-28T15:12:13.125Z,80.17
2022-12-28T15:14:41.132Z,79.68
2022-12-28T15:17:09.844Z,80.01
2022-12-28T15:19:38.038Z,79.56
2022-12-28T15:22:06.419Z,80.41
2022-12-28T15:24:35.162Z,79.88
2022-12-28T15:27:06.258Z,79.68
2022-12-28T15:32:22.220Z,80.02
2022-12-28T15:34:50.250Z,79.89
2022-12-28T15:37:18.266Z,79.63
2022-12-28T15:39:46.252Z,79.64
2022-12-28T15:42:14.292Z,79.85
2022-12-28T15:44:42.253Z,80.10
2022-12-28T15:47:10.309Z,80.01
2022-12-28T15:49:38.353Z,79.63
2022-12-28T15:52:06.301Z,80.06
2022-12-28T15:54:34.284Z,79.92
2022-12-28T15:57:02.417Z,79.92
2022-12-28T15:59:30.357Z,80.38
2022-12-28T16:01:58.394Z,79.81
2022-12-28T16:04:26.397Z,79.75
2022-12-28T16:06:54.385Z,80.59
2022-12-28T16:09:22.570Z,80.56
2022-12-28T16:11:55.079Z,80.82
2022-12-28T16:14:24.027Z,80.58
2022-12-28T16:16:52.513Z,80.10
2022-12-28T16:19:20.951Z,79.84
2022-12-28T16:21:52.037Z,80.11
2022-12-28T16:24:21.145Z,80.20
2022-12-28T16:26:49.131Z,80.14
2022-12-28T16:29:17.151Z,79.90
2022-12-28T16:31:45.235Z,80.48
2022-12-28T16:34:15.181Z,80.62
2022-12-28T16:36:43.789Z,80.37
2022-12-28T16:39:14.269Z,80.33
2022-12-28T16:41:42.444Z,80.12
2022-12-28T16:44:15.335Z,80.35
2022-12-28T16:46:43.526Z,80.69
2022-12-28T16:49:12.282Z,80.70
2022-12-28T16:51:41.294Z,80.71
2022-12-28T16:54:09.879Z,80.51
2022-12-28T16:56:37.774Z,80.86
2022-12-28T16:59:05.662Z,80.86
2022-12-28T17:01:33.722Z,80.85
2022-12-28T17:04:04.066Z,80.67
2022-12-28T17:06:32.614Z,80.76
2022-12-28T17:09:02.578Z,80.95
2022-12-28T17:11:31.031Z,80.80
2022-12-28T17:14:06.418Z,80.85
2022-12-28T17:16:34.914Z,81.09
2022-12-28T17:19:02.902Z,81.13
2022-12-28T17:21:31.056Z,81.01
2022-12-28T17:23:59.354Z,80.90
2022-12-28T17:26:27.799Z,81.24
2022-12-28T17:28:55.834Z,81.31
2022-12-28T17:31:24.488Z,81.15
2022-12-28T17:33:58.728Z,81.30
2022-12-28T17:36:26.878Z,81.32
2022-12-28T17:38:54.887Z,80.95
2022-12-28T17:41:24.697Z,81.32
2022-12-28T17:43:56.964Z,81.29
2022-12-28T17:46:27.114Z,81.43
2022-12-28T17:48:56.024Z,81.13
2022-12-28T17:51:26.335Z,81.33
2022-12-28T17:53:55.794Z,81.12
2022-12-28T17:56:23.719Z,81.29
2022-12-28T17:58:54.452Z,81.29
2022-12-28T18:01:22.885Z,81.41
2022-12-28T18:03:50.910Z,81.10
2022-12-28T18:06:18.895Z,81.45
2022-12-28T18:08:46.909Z,81.14
2022-12-28T18:11:14.841Z,81.23
2022-12-28T18:13:43.479Z,81.31
2022-12-28T18:16:14.037Z,81.16
2022-12-28T18:18:42.258Z,81.28
2022-12-28T18:21:17.905Z,81.08
2022-12-28T18:23:49.932Z,81.25
2022-12-28T18:26:20.824Z,81.03
2022-12-28T18:28:49.152Z,80.74
2022-12-28T18:31:17.230Z,80.64
2022-12-28T18:33:45.225Z,81.01
2022-12-28T18:36:17.774Z,81.04
2022-12-28T18:38:46.912Z,81.16
2022-12-28T18:41:16.497Z,80.69
2022-12-28T18:43:44.435Z,80.66
2022-12-28T18:46:12.666Z,80.72
2022-12-28T18:48:41.610Z,80.53
2022-12-28T18:51:14.360Z,80.59
2022-12-28T18:53:42.778Z,80.66
2022-12-28T18:56:13.131Z,80.13
2022-12-28T18:58:41.636Z,79.76
2022-12-28T19:01:25.897Z,79.55
2022-12-28T19:04:01.752Z,79.46
2022-12-28T19:06:31.166Z,79.21
2022-12-28T19:09:00.494Z,78.61
2022-12-28T19:11:28.894Z,78.01
2022-12-28T19:13:57.063Z,78.21
2022-12-28T19:16:30.980Z,78.53
2022-12-28T19:18:59.435Z,78.16
2022-12-28T19:21:32.014Z,77.60
2022-12-28T19:24:04.000Z,77.80
2022-12-28T19:26:33.391Z,77.45
2022-12-28T19:29:01.468Z,77.44
2022-12-28T19:31:29.462Z,76.86
2022-12-28T19:33:57.470Z,77.03
2022-12-28T19:36:28.630Z,76.96
2022-12-28T19:38:57.458Z,76.37
2022-12-28T19:41:26.136Z,75.66
2022-12-28T19:43:54.127Z,75.74
2022-12-28T19:46:32.392Z,75.05
2022-12-28T19:49:01.477Z,74.42
2022-12-28T19:51:31.917Z,74.49
2022-12-28T19:54:01.012Z,74.02
2022-12-28T19:56:29.265Z,73.23
2022-12-28T19:59:05.131Z,72.77
2022-12-28T20:01:34.530Z,72.31
2022-12-28T20:04:07.226Z,72.70
2022-12-28T20:06:40.630Z,72.14
2022-12-28T20:09:08.630Z,72.20
2022-12-28T20:11:37.095Z,71.77
2022-12-28T20:14:05.282Z,71.50
2022-12-28T20:16:34.541Z,71.06
2022-12-28T20:19:03.036Z,71.39
2022-12-28T20:21:31.381Z,71.29
2022-12-28T20:24:01.616Z,71.24
2022-12-28T20:26:30.264Z,70.86
2022-12-28T20:28:59.324Z,71.29
2022-12-28T20:31:28.282Z,69.93
2022-12-28T20:33:56.471Z,70.17
2022-12-28T20:36:28.338Z,69.70
2022-12-28T20:38:56.833Z,69.48
2022-12-28T20:41:44.441Z,68.37
2022-12-28T20:44:13.933Z,68.82
2022-12-28T20:46:43.184Z,68.73
2022-12-28T20:49:11.222Z,67.65
2022-12-28T20:51:39.188Z,67.73
2022-12-28T20:54:07.225Z,66.87
2022-12-28T20:56:39.231Z,66.47
2022-12-28T20:59:07.397Z,66.55
2022-12-28T21:01:35.669Z,66.64
2022-12-28T21:04:03.926Z,66.12
2022-12-28T21:06:31.881Z,66.59
2022-12-28T21:09:00.184Z,65.81
2022-12-28T21:11:29.757Z,65.95
2022-12-28T21:13:57.891Z,65.24
2022-12-28T21:16:26.305Z,65.97
2022-12-28T21:18:54.388Z,65.70
2022-12-28T21:21:25.609Z,65.40
2022-12-28T21:23:56.195Z,65.32
2022-12-28T21:26:24.277Z,65.17
2022-12-28T21:28:52.258Z,64.58
2022-12-28T21:31:20.397Z,64.78
2022-12-28T21:33:48.428Z,65.17
2022-12-28T21:36:17.614Z,64.77
2022-12-28T21:38:46.674Z,64.39
2022-12-28T21:41:38.755Z,63.87
2022-12-28T21:44:07.298Z,63.99
2022-12-28T21:46:35.436Z,63.17
2022-12-28T21:49:06.040Z,63.02
2022-12-28T21:51:38.398Z,61.83
2022-12-28T21:54:07.717Z,61.26
2022-12-28T21:56:36.350Z,60.94
2022-12-28T21:59:04.568Z,59.51
2022-12-28T22:01:51.013Z,59.47
2022-12-28T22:04:38.280Z,59.88
2022-12-28T22:07:07.331Z,59.56
2022-12-28T22:09:54.564Z,59.24
2022-12-28T22:12:38.384Z,59.64
2022-12-28T22:15:26.205Z,58.95
2022-12-28T22:17:55.867Z,59.12
2022-12-28T22:20:24.332Z,59.46
2022-12-28T22:22:52.343Z,59.50
2022-12-28T22:25:20.281Z,58.40
2022-12-28T22:27:48.170Z,58.67
2022-12-28T22:30:16.171Z,58.34
2022-12-28T22:32:44.165Z,58.51
2022-12-28T22:35:12.327Z,58.58
2022-12-28T22:37:40.330Z,58.45
2022-12-28T22:40:08.826Z,58.40
2022-12-28T22:42:40.695Z,58.62
2022-12-28T22:45:09.617Z,58.20
2022-12-28T22:47:37.520Z,58.70
2022-12-28T22:50:05.945Z,58.42
2022-12-28T22:52:34.012Z,58.53
2022-12-28T22:55:02.411Z,58.00
2022-12-28T22:57:30.371Z,58.42
2022-12-28T22:59:58.260Z,56.75
2022-12-28T23:02:26.404Z,57.52
2022-12-28T23:04:54.429Z,57.48
2022-12-28T23:07:22.313Z,57.58
2022-12-28T23:09:50.251Z,57.67
2022-12-28T23:12:18.136Z,57.68
2022-12-28T23:15:04.366Z,57.53
2022-12-28T23:17:32.263Z,57.90
2022-12-28T23:20:18.410Z,58.00
2022-12-28T23:23:04.971Z,58.19
2022-12-28T23:25:51.315Z,58.21
2022-12-28T23:28:19.537Z,59.02
2022-12-28T23:30:49.153Z,59.15
2022-12-28T23:33:17.753Z,59.66
2022-12-28T23:35:46.102Z,59.69
2022-12-28T23:38:14.204Z,60.00
2022-12-28T23:40:42.965Z,60.01
2022-12-28T23:43:10.903Z,59.90
2022-12-28T23:45:38.900Z,60.80
2022-12-28T23:48:06.905Z,60.40
2022-12-28T23:50:34.887Z,60.63
2022-12-28T23:53:02.901Z,61.08
2022-12-28T23:55:30.884Z,61.02
2022-12-28T23:57:58.895Z,61.55
